Sierra Nevada Aquatic Research Lab (SNARL) Reserve, California Weather observations

Data are for 10 minute period ending at time listed.
 Day   Time   Solar   Ave.   Ave.  Ave.  Vector  Max.   Baro.   Total    
  of    of     Rad.   Air    Rel.  Wind   Wind   Wind  Press.  Precip.   
Year   Day            Temp.  Hum.  Speed  Dir.   Gust                    
2016   (PST)  Kw/m2    F      %     mph   deg.    mph    mb.     in.     
-------------------------------------------------------------------------
 126    0:00   0.00   34.2    84    0.9   318     2.3   779.7    0.00 
 126    0:10   0.00   32.2    87    2.2   234     4.1   779.6    0.00 
 126    0:20   0.00   31.5    89    1.3    58     2.9   779.6    0.00 
 126    0:30   0.00   31.9    87    1.7   201     4.2   779.6    0.00 
 126    0:40   0.00   31.5    87    1.0   108     2.1   779.5    0.00 
 126    0:50   0.00   31.0    89    3.1   257     6.9   779.5    0.00 
 126    1:00   0.00   31.7    88    2.1   218     5.6   779.3    0.00 
 126    1:10   0.00   31.6    88    1.8    83     3.3   779.3    0.00 
 126    1:20   0.00   30.9    87    1.5   209     5.0   779.2    0.00 
 126    1:30   0.00   30.7    90    2.7   232     4.3   779.1    0.00 
 126    1:40   0.00   30.5    90    3.8   245     6.0   779.1    0.00 
 126    1:50   0.00   32.0    89    2.4   243     4.0   779.0    0.00 
 126    2:00   0.00   32.5    87    1.3   345     3.1   779.0    0.00 
 126    2:10   0.00   31.2    88    2.7   309     6.6   778.9    0.00 
 126    2:20   0.00   30.3    90    1.4   244     3.8   778.8    0.00 
 126    2:30   0.00   30.2    92    1.2   220     3.1   778.7    0.00 
 126    2:40   0.00   29.8    91    0.4   340     2.6   778.7    0.00 
 126    2:50   0.00   29.0    93    1.5   305     3.7   778.7    0.00 
 126    3:00   0.00   28.4    93    2.9   246     4.8   778.7    0.00 
 126    3:10   0.00   29.2    94    1.1   257     1.5   778.6    0.00 
 126    3:20   0.00   30.2    94    1.7   240     3.0   778.6    0.00 
 126    3:30   0.00   31.0    91    2.2   256     3.3   778.5    0.00 
 126    3:40   0.00   31.0    92    3.3   324     5.3   778.5    0.00 
 126    3:50   0.00   31.8    91    2.1   306     5.0   778.4    0.00 
 126    4:00   0.00   32.5    89    2.2   282     3.8   778.4    0.00 
 126    4:10   0.00   32.3    89    1.4   207     2.8   778.3    0.00 
 126    4:20   0.00   32.6    90    0.0   112     0.4   778.3    0.00 
 126    4:30   0.00   32.4    90    0.4   192     1.2   778.2    0.00 
 126    4:40   0.00   32.5    91    1.6   269     2.9   778.2    0.00 
 126    4:50   0.00   32.8    90    0.2   321     1.2   778.2    0.00 
 126    5:00   0.00   33.0    90    1.6   311     2.6   778.2    0.00 
 126    5:10   0.00   32.8    91    1.5   287     2.3   778.2    0.00 
 126    5:20   0.00   32.8    92    1.2   230     2.4   778.3    0.00 
 126    5:30   0.01   33.3    92    0.9   146     1.7   778.4    0.00 
 126    5:40   0.03   33.8    92    1.3   231     3.9   778.3    0.00 
 126    5:50   0.04   34.4    92    1.3   227     2.6   778.2    0.00 
 126    6:00   0.04   35.1    90    3.3   315     6.1   778.3    0.00 
 126    6:10   0.06   35.9    89    2.3   280     3.7   778.4    0.00 
 126    6:20   0.09   36.8    88    2.4   340     3.9   778.4    0.00 
 126    6:30   0.13   37.6    87    1.0   272     2.2   778.4    0.00 
 126    6:40   0.18   39.5    84    1.2   338     3.0   778.4    0.00 
 126    6:50   0.19   41.7    78    1.5   338     2.9   778.4    0.00 
 126    7:00   0.17   43.3    72    1.5   312     3.1   778.4    0.00 
 126    7:10   0.20   44.9    68    1.0    32     3.2   778.3    0.00 
 126    7:20   0.36   46.5    62    0.6    44     2.6   778.4    0.00 
 126    7:30   0.45   49.4    57    2.0    62     5.4   778.3    0.00 
 126    7:40   0.45   49.4    58    2.5    71     4.7   778.3    0.00 
 126    7:50   0.36   49.3    58    3.9    84     6.7   778.3    0.00 
 126    8:00   0.58   50.3    54    3.3    95     7.2   778.2    0.00 
 126    8:10   0.57   51.5    50    4.0    77     8.8   778.1    0.00 
 126    8:20   0.63   52.8    45    4.4    66     7.7   778.0    0.00 

Return to SNARL Reserve graphs page.


Western Regional Climate Center,wrcc@dri.edu